*** The Vicarage Weather Feed ***

Nearby METAR Reports


 

CYOO - Oshawa, Municipal Airport, Ontario, Canada
Distance from station: NW 3.2km
Updated: 03/03/2021 06:00
Mostly cloudy
Mostly cloudy
 Wind from WSW
Wind: WSW 13 km/h
Temperature: 0°C
Wind Chill: -4°C
Dew Point: -6°C
Humidity: 64%
Barometer: 1010.5 hPa
Clouds: Mostly cloudy
Visibility: 14 km
Cloud details: Mostly cloudy 1250 m
2021/03/03 11:00 CYOO 031100Z AUTO 24007KT 9SM BKN041 M00/M06 A2984 RMK SLP111
CYKZ - Toronto, Buttonville, Municipal Airport, Ontario, Canada
Distance from station: W 39.75km
Updated: 03/01/2019 04:00
NOT Current
Partly cloudy
Partly cloudy
 Wind from WSW
Wind: WSW 7 km/h
Temperature: -3°C
Wind Chill: -6°C
Dew Point: -5°C
Humidity: 86%
Barometer: 1010.8 hPa
Clouds: Partly cloudy
Visibility: 24 km
Cloud details: Partly cloudy 1219 m
2019/01/03 09:00 CYKZ 030900Z 25004KT 15SM SCT040 M03/M05 A2985 RMK SC3 LAST STFD OBS FAREWELL SLP118
 
CXTO - Toronto City, Buttonville, Ontario, Canada
Distance from station: WSW 49km
Updated: 03/03/2021 06:00

 
Temperature: 0°C
Dew Point: -6°C
Humidity: 64%
2021/03/03 11:00 CXTO 031100Z AUTO M00/M06 RMK AO1 SLP115 T10031064 55000
CYTZ - Toronto City, Island Airport, Ontario, Canada
Distance from station: SW 51.7km
Updated: 03/03/2021 06:00
Clear
Clear
 Wind from WSW
Wind: WSW 17 km/h
Temperature: 0°C
Wind Chill: -4°C
Dew Point: -5°C
Humidity: 69%
Barometer: 1011.2 hPa
Clouds: Clear
Visibility: 14 km
2021/03/03 11:00 CYTZ 031100Z AUTO 25009KT 9SM CLR M00/M05 A2986 RMK SLP118
 
CYPQ - Toronto, Peterborough Airport, Ontario, Canada
Distance from station: NE 54km
Updated: 03/03/2021 06:00
Clear
Clear
 Wind from WSW
Wind: WSW 9 km/h
Temperature: -2°C
Wind Chill: -6°C
Dew Point: -7°C
Humidity: 69%
Barometer: 1009.1 hPa
Clouds: Clear
Visibility: 14 km
2021/03/03 11:00 CYPQ 031100Z AUTO 24005KT 9SM CLR M02/M07 A2980 RMK SLP105
CWNC - Cobourg, (mars), Ontario, Canada
Distance from station: E 57km
Updated: 03/03/2021 06:00

 Wind from W
Wind: W 17 km/h
Temperature: 1°C
Wind Chill: -3°C
Dew Point: -3°C
Humidity: 75%
2021/03/03 11:00 CWNC 031100Z AUTO 28009KT 01/M03 RMK AO1 SOG 02 3003 SLP104 T00131031
 
CYYZ - Toronto, Lester Pearson Airport, Ontario, Canada
Distance from station: W 65.5km
Updated: 03/03/2021 06:00
Few Clouds
Few Clouds
 Wind from varies
Wind: varies 4 km/h
Temperature: -2°C
Dew Point: -7°C
Humidity: 69%
Barometer: 1010.8 hPa
Clouds: Few Clouds
Visibility: 24 km
Cloud details: Few Clouds 4267 m
Few Clouds 6706 m
2021/03/03 11:00 CYYZ 031100Z VRB02KT 15SM FEW140 FEW220 M02/M07 A2985 RMK AC1CI1 SLP118
CWGL - Lagoon City, Ontario, Canada
Distance from station: NNW 74km
Updated: 03/03/2021 06:00

 Wind from WSW
Wind: WSW 19 km/h
Temperature: -2°C
Wind Chill: -8°C
Dew Point: -5°C
Humidity: 80%
2021/03/03 11:00 CWGL 031100Z AUTO 24010KT M02/M05 RMK AO1 SLP083 T10181048 53004
 
CWWZ - Port Weller Airport, Ontario, Canada
Distance from station: SSW 77km
Updated: 03/03/2021 06:00

 Wind from SW
Wind: SW 15 km/h
Temperature: 1°C
Wind Chill: -3°C
Dew Point: -3°C
Humidity: 75%
2021/03/03 11:00 CWWZ 031100Z AUTO 23008KT 01/M03 RMK AO1 SOG 01 6001 SLP124 T00091029
CYSN - St.Catharines Niagara Airport, Ontario, Canada
Distance from station: SSW 81km
Updated: 02/03/2021 21:00
NOT Current
Few Clouds
Few Clouds
 Wind from SW
Wind: SW 19 km/h, Gust: 31 km/h
Temperature: -1°C
Wind Chill: -7°C
Dew Point: -9°C
Humidity: 55%
Barometer: 1014.2 hPa
Clouds: Few Clouds
Visibility: 24 km
Cloud details: Few Clouds 3658 m
Few Clouds 6706 m
2021/03/03 02:00 CYSN 030200Z 22010G17KT 15SM FEW120 FEW220 M01/M09 A2995 RMK AC1CI2 AC TR LAST STFD OBS/NEXT 031200 UTC SLP150
This data is offered only as a general guide to local weather conditions. It should not be relied upon in lieu of officially disseminated weather information for determining possible risk to persons or property. This site, including all information contained therein, is made available as is without warranties of any kind, either express or implied. The Vicarage Weather Feed© includes links to other sites for user convenience only. The content of any linked third-party site is not controlled by The Vicarage Weather Feed©. Access to any third-party website through The Vicarage Weather Feed©, regardless of whether or not the third-party site is a linked site, is entirely at the users own risk. Externally sourced content or material is excluded from The Vicarage Weather Feed© copyright and is the copyright and property of the respective provider. Skywarn® and the Skywarn® logo are registered trademarks of the National Oceanic and Atmospheric Administration, used with permission.